createdAt,value
2018-05-14T00:00:08.595Z,48.90
2018-05-14T00:01:06.223Z,48.90
2018-05-14T00:02:10.780Z,48.80
2018-05-14T00:03:05.859Z,48.80
2018-05-14T00:04:06.068Z,48.80
2018-05-14T00:05:06.588Z,48.80
2018-05-14T00:06:06.376Z,48.60
2018-05-14T00:07:05.869Z,48.70
2018-05-14T00:08:08.883Z,48.90
2018-05-14T00:09:08.948Z,48.80
2018-05-14T00:10:05.996Z,48.80
2018-05-14T00:11:06.093Z,48.70
2018-05-14T00:12:06.300Z,48.70
2018-05-14T00:13:06.105Z,48.70
2018-05-14T00:14:08.406Z,48.60
2018-05-14T00:15:11.199Z,48.60
2018-05-14T00:16:05.688Z,48.60
2018-05-14T00:17:08.542Z,48.70
2018-05-14T00:18:06.780Z,48.70
2018-05-14T00:19:09.563Z,48.70
2018-05-14T00:20:05.954Z,48.70
2018-05-14T00:21:06.338Z,48.70
2018-05-14T00:22:10.639Z,48.60
2018-05-14T00:23:09.352Z,48.90
2018-05-14T00:24:08.423Z,48.80
2018-05-14T00:25:06.477Z,48.80
2018-05-14T00:26:08.894Z,48.70
2018-05-14T00:27:06.511Z,48.70
2018-05-14T00:28:06.433Z,48.60
2018-05-14T00:29:08.896Z,48.90
2018-05-14T00:30:09.518Z,48.80
2018-05-14T00:31:05.962Z,48.80
2018-05-14T00:32:09.297Z,48.80
2018-05-14T00:33:06.250Z,48.80
2018-05-14T00:34:06.021Z,49.00
2018-05-14T00:35:08.725Z,48.80
2018-05-14T00:36:05.963Z,48.80
2018-05-14T00:37:05.575Z,48.90
2018-05-14T00:38:11.638Z,49.10
2018-05-14T00:39:05.784Z,49.20
2018-05-14T00:40:05.797Z,49.30
2018-05-14T00:41:05.506Z,49.10
2018-05-14T00:42:06.018Z,49.20
2018-05-14T00:43:10.418Z,49.40
2018-05-14T00:44:06.179Z,49.40
2018-05-14T00:45:05.605Z,49.20
2018-05-14T00:46:05.725Z,49.20
2018-05-14T00:47:10.638Z,49.20
2018-05-14T00:48:06.148Z,49.30
2018-05-14T00:49:05.986Z,49.30
2018-05-14T00:50:05.727Z,49.40
2018-05-14T00:51:06.321Z,49.20
2018-05-14T00:52:05.458Z,49.30
2018-05-14T00:53:06.442Z,49.40
2018-05-14T00:54:05.798Z,49.40
2018-05-14T00:55:06.461Z,49.30
2018-05-14T00:56:05.526Z,49.50
2018-05-14T00:57:06.324Z,49.30
2018-05-14T00:58:06.530Z,49.50
2018-05-14T00:59:06.222Z,49.50
2018-05-14T01:00:06.428Z,49.40
2018-05-14T01:01:05.484Z,49.40
2018-05-14T01:02:09.585Z,49.50
2018-05-14T01:03:06.280Z,49.50
2018-05-14T01:04:10.612Z,49.50
2018-05-14T01:05:05.919Z,49.50
2018-05-14T01:06:06.546Z,49.40
2018-05-14T01:07:06.069Z,49.50
2018-05-14T01:08:08.493Z,49.50
2018-05-14T01:09:16.057Z,49.50
2018-05-14T01:10:05.395Z,49.40
2018-05-14T01:11:05.503Z,49.30
2018-05-14T01:12:06.202Z,49.30
2018-05-14T01:13:05.710Z,49.30
2018-05-14T01:14:06.005Z,49.50
2018-05-14T01:15:08.078Z,49.30
2018-05-14T01:16:07.981Z,49.30
2018-05-14T01:17:09.530Z,49.50
2018-05-14T01:18:06.154Z,49.60
2018-05-14T01:19:06.369Z,49.50
2018-05-14T01:20:05.969Z,49.50
2018-05-14T01:21:05.496Z,49.50
2018-05-14T01:22:06.574Z,49.70
2018-05-14T01:23:05.758Z,49.60
2018-05-14T01:24:08.891Z,49.60
2018-05-14T01:25:08.848Z,49.70
2018-05-14T01:26:06.214Z,49.70
2018-05-14T01:27:06.153Z,49.80
2018-05-14T01:28:05.816Z,49.70
2018-05-14T01:29:06.905Z,49.80
2018-05-14T01:30:05.574Z,49.90
2018-05-14T01:31:08.990Z,49.80
2018-05-14T01:32:09.649Z,49.90
2018-05-14T01:33:11.245Z,49.90
2018-05-14T01:34:05.812Z,49.90
2018-05-14T01:35:08.786Z,49.90
2018-05-14T01:36:06.199Z,49.80
2018-05-14T01:37:05.833Z,50.00
2018-05-14T01:38:06.232Z,49.90
2018-05-14T01:39:06.122Z,50.00
2018-05-14T01:40:09.043Z,50.20
2018-05-14T01:41:08.510Z,50.00
2018-05-14T01:42:05.979Z,50.00
2018-05-14T01:43:05.619Z,50.10
2018-05-14T01:44:08.567Z,50.10
2018-05-14T01:45:06.337Z,50.10
2018-05-14T01:46:06.127Z,50.20
2018-05-14T01:47:06.292Z,50.40
2018-05-14T01:48:05.546Z,50.80
2018-05-14T01:49:11.089Z,50.40
2018-05-14T01:50:10.502Z,50.40
2018-05-14T01:51:05.920Z,50.50
2018-05-14T01:52:08.342Z,50.40
2018-05-14T01:53:06.019Z,50.40
2018-05-14T01:54:05.584Z,50.70
2018-05-14T01:55:06.100Z,50.50
2018-05-14T01:56:05.717Z,50.60
2018-05-14T01:57:06.471Z,50.80
2018-05-14T01:58:06.436Z,50.90
2018-05-14T01:59:05.781Z,50.60
2018-05-14T02:00:10.589Z,50.70
2018-05-14T02:01:09.252Z,50.90
2018-05-14T02:02:10.706Z,50.80
2018-05-14T02:03:08.377Z,50.90
2018-05-14T02:04:13.471Z,50.60
2018-05-14T02:05:08.827Z,50.70
2018-05-14T02:06:11.209Z,50.60
2018-05-14T02:07:05.613Z,50.90
2018-05-14T02:08:06.168Z,50.80
2018-05-14T02:09:05.883Z,50.80
2018-05-14T02:10:10.008Z,50.70
2018-05-14T02:11:13.556Z,50.80
2018-05-14T02:12:05.998Z,50.80
2018-05-14T02:13:06.879Z,50.80
2018-05-14T02:14:06.427Z,50.80
2018-05-14T02:15:08.744Z,50.90
2018-05-14T02:16:06.672Z,50.80
2018-05-14T02:17:08.707Z,50.80
2018-05-14T02:18:06.622Z,50.70
2018-05-14T02:19:05.970Z,50.80
2018-05-14T02:20:11.437Z,51.00
2018-05-14T02:21:10.836Z,50.90
2018-05-14T02:22:06.249Z,51.10
2018-05-14T02:23:06.326Z,51.40
2018-05-14T02:24:10.842Z,51.60
2018-05-14T02:25:08.424Z,51.70
2018-05-14T02:26:05.495Z,51.70
2018-05-14T02:27:09.590Z,52.00
2018-05-14T02:28:05.614Z,52.00
2018-05-14T02:29:07.383Z,52.10
2018-05-14T02:30:05.957Z,52.40
2018-05-14T02:31:09.538Z,52.40
2018-05-14T02:32:11.034Z,52.50
2018-05-14T02:33:09.606Z,53.00
2018-05-14T02:34:06.113Z,53.00
2018-05-14T02:35:06.520Z,52.60
2018-05-14T02:36:08.407Z,52.50
2018-05-14T02:37:05.852Z,52.50
2018-05-14T02:38:06.172Z,52.70
2018-05-14T02:39:05.850Z,52.70
2018-05-14T02:40:05.569Z,52.60
2018-05-14T02:41:05.740Z,52.40
2018-05-14T02:42:08.802Z,52.40
2018-05-14T02:43:11.254Z,52.40
2018-05-14T02:44:06.690Z,52.20
2018-05-14T02:45:06.551Z,52.20
2018-05-14T02:46:11.383Z,52.40
2018-05-14T02:47:05.730Z,52.40
2018-05-14T02:48:05.951Z,52.50
2018-05-14T02:49:05.600Z,52.30
2018-05-14T02:50:09.474Z,52.30
2018-05-14T02:51:06.195Z,52.30
2018-05-14T02:52:05.731Z,52.20
2018-05-14T02:53:09.743Z,52.20
2018-05-14T02:54:06.516Z,52.20
2018-05-14T02:55:06.328Z,52.20
2018-05-14T02:56:05.780Z,52.30
2018-05-14T02:57:09.326Z,52.00
2018-05-14T02:58:06.106Z,52.00
2018-05-14T02:59:06.155Z,52.10
2018-05-14T03:00:06.237Z,52.10
2018-05-14T03:01:06.065Z,52.10
2018-05-14T03:02:06.107Z,52.00
2018-05-14T03:03:11.368Z,52.00
2018-05-14T03:04:06.547Z,52.00
2018-05-14T03:05:08.586Z,52.40
2018-05-14T03:06:05.954Z,52.40
2018-05-14T03:07:09.739Z,52.20
2018-05-14T03:08:06.470Z,52.30
2018-05-14T03:09:08.581Z,52.30
2018-05-14T03:10:11.159Z,52.40
2018-05-14T03:11:05.619Z,52.50
2018-05-14T03:12:06.182Z,52.30
2018-05-14T03:13:06.242Z,52.40
2018-05-14T03:14:05.963Z,52.40
2018-05-14T03:15:06.351Z,52.40
2018-05-14T03:16:08.827Z,52.40
2018-05-14T03:17:06.316Z,52.40
2018-05-14T03:18:05.500Z,52.40
2018-05-14T03:19:09.939Z,52.40
2018-05-14T03:20:06.079Z,52.40
2018-05-14T03:21:10.903Z,52.50
2018-05-14T03:22:06.125Z,52.50
2018-05-14T03:23:05.696Z,52.50
2018-05-14T03:24:05.888Z,52.40
2018-05-14T03:25:11.441Z,52.70
2018-05-14T03:26:05.728Z,52.60
2018-05-14T03:27:06.010Z,52.50
2018-05-14T03:28:06.201Z,52.60
2018-05-14T03:29:05.547Z,52.60
2018-05-14T03:30:09.088Z,52.50
2018-05-14T03:31:05.744Z,52.50
2018-05-14T03:32:10.561Z,52.60
2018-05-14T03:33:05.825Z,52.50
2018-05-14T03:34:05.864Z,52.50
2018-05-14T03:35:10.618Z,52.40
2018-05-14T03:36:05.761Z,52.50
2018-05-14T03:37:06.197Z,52.50
2018-05-14T03:38:09.101Z,52.50
2018-05-14T03:39:05.465Z,52.50
2018-05-14T03:40:05.568Z,52.50
2018-05-14T03:41:08.577Z,52.80
2018-05-14T03:42:06.385Z,52.80
2018-05-14T03:43:08.548Z,52.80
2018-05-14T03:44:05.951Z,52.80
2018-05-14T03:45:05.670Z,52.70
2018-05-14T03:46:06.205Z,52.80
2018-05-14T03:47:06.312Z,52.90
2018-05-14T03:48:09.161Z,53.00
2018-05-14T03:49:05.635Z,52.90
2018-05-14T03:50:11.336Z,52.90
2018-05-14T03:51:05.711Z,52.90
2018-05-14T03:52:06.717Z,52.70
2018-05-14T03:53:09.577Z,52.80
2018-05-14T03:54:06.114Z,52.80
2018-05-14T03:55:13.475Z,52.90
2018-05-14T03:56:05.977Z,52.90
2018-05-14T03:57:06.012Z,52.90
2018-05-14T03:58:10.463Z,52.70
2018-05-14T03:59:09.017Z,53.00
2018-05-14T04:00:05.654Z,52.80
2018-05-14T04:01:06.497Z,52.60
2018-05-14T04:02:06.540Z,52.70
2018-05-14T04:03:06.213Z,52.70
2018-05-14T04:04:08.364Z,52.70
2018-05-14T04:05:10.924Z,52.90
2018-05-14T04:06:05.742Z,52.70
2018-05-14T04:07:06.692Z,52.70
2018-05-14T04:08:05.574Z,52.90
2018-05-14T04:09:06.355Z,52.90
2018-05-14T04:10:08.948Z,52.90
2018-05-14T04:11:06.657Z,52.90
2018-05-14T04:12:06.947Z,52.60
2018-05-14T04:13:05.988Z,52.40
2018-05-14T04:14:06.167Z,52.00
2018-05-14T04:15:05.725Z,51.70
2018-05-14T04:16:06.269Z,51.70
2018-05-14T04:17:09.467Z,51.20
2018-05-14T04:18:06.991Z,51.10
2018-05-14T04:19:05.764Z,50.90
2018-05-14T04:20:06.704Z,50.40
2018-05-14T04:21:10.583Z,50.10
2018-05-14T04:22:06.286Z,50.10
2018-05-14T04:23:06.139Z,49.80
2018-05-14T04:24:05.961Z,49.00
2018-05-14T04:25:06.448Z,48.70
2018-05-14T04:26:06.060Z,48.40
2018-05-14T04:27:06.405Z,48.20
2018-05-14T04:28:06.127Z,47.90
2018-05-14T04:29:09.700Z,47.30
2018-05-14T04:30:08.995Z,47.00
2018-05-14T04:31:08.947Z,46.70
2018-05-14T04:32:05.556Z,46.70
2018-05-14T04:33:06.394Z,46.40
2018-05-14T04:34:11.219Z,46.10
2018-05-14T04:35:05.680Z,46.20
2018-05-14T04:36:06.431Z,45.90
2018-05-14T04:37:08.949Z,45.40
2018-05-14T04:38:09.369Z,45.40
2018-05-14T04:39:06.141Z,45.40
2018-05-14T04:40:08.481Z,44.90
2018-05-14T04:41:06.084Z,45.00
2018-05-14T04:42:09.770Z,44.40
2018-05-14T04:43:09.802Z,44.30
2018-05-14T04:44:05.596Z,44.30
2018-05-14T04:45:11.068Z,44.10
2018-05-14T04:46:08.708Z,43.50
2018-05-14T04:47:06.232Z,43.50
2018-05-14T04:48:06.664Z,43.40
2018-05-14T04:49:06.186Z,43.40
2018-05-14T04:50:06.460Z,43.00
2018-05-14T04:51:08.310Z,43.00
2018-05-14T04:52:10.472Z,42.90
2018-05-14T04:53:06.033Z,42.90
2018-05-14T04:54:05.942Z,42.60
2018-05-14T04:55:06.824Z,42.80
2018-05-14T04:56:09.045Z,42.10
2018-05-14T04:57:08.044Z,42.30
2018-05-14T04:58:05.713Z,42.30
2018-05-14T04:59:09.399Z,41.20
2018-05-14T05:00:06.482Z,41.20
2018-05-14T05:01:11.253Z,41.40
2018-05-14T05:02:06.347Z,41.30
2018-05-14T05:03:09.271Z,41.00
2018-05-14T05:04:06.369Z,41.00
2018-05-14T05:05:06.637Z,40.80
2018-05-14T05:06:06.580Z,41.00
2018-05-14T05:07:06.300Z,40.90
2018-05-14T05:08:06.288Z,40.80
2018-05-14T05:09:06.553Z,40.50
2018-05-14T05:10:08.363Z,39.80
2018-05-14T05:11:08.394Z,39.60
2018-05-14T05:12:06.109Z,39.60
2018-05-14T05:13:06.289Z,39.70
2018-05-14T05:14:10.908Z,39.50
2018-05-14T05:15:05.858Z,39.50
2018-05-14T05:16:08.809Z,39.50
2018-05-14T05:17:11.678Z,39.50
2018-05-14T05:18:07.139Z,39.50
2018-05-14T05:19:11.122Z,38.40
2018-05-14T05:20:09.011Z,38.30
2018-05-14T05:21:05.820Z,38.30
2018-05-14T05:22:06.325Z,38.50
2018-05-14T05:23:06.034Z,38.60
2018-05-14T05:24:06.000Z,38.60
2018-05-14T05:25:05.974Z,38.50
2018-05-14T05:26:09.099Z,37.80
2018-05-14T05:27:08.149Z,37.90
2018-05-14T05:28:08.500Z,38.10
2018-05-14T05:29:09.261Z,37.70
2018-05-14T05:30:10.829Z,37.40
2018-05-14T05:31:06.237Z,37.30
2018-05-14T05:32:06.561Z,37.70
2018-05-14T05:33:10.631Z,37.50
2018-05-14T05:34:05.969Z,37.40
2018-05-14T05:35:08.611Z,37.10
2018-05-14T05:36:06.288Z,37.10
2018-05-14T05:37:06.446Z,37.00
2018-05-14T05:38:11.163Z,37.00
2018-05-14T05:39:06.480Z,36.80
2018-05-14T05:40:10.901Z,36.60
2018-05-14T05:41:06.077Z,36.80
2018-05-14T05:42:08.949Z,36.90
2018-05-14T05:43:05.850Z,36.90
2018-05-14T05:44:10.639Z,36.80
2018-05-14T05:45:06.109Z,36.80
2018-05-14T05:46:06.145Z,36.80
2018-05-14T05:47:08.372Z,37.10
2018-05-14T05:48:05.991Z,37.00
2018-05-14T05:49:05.612Z,37.30
2018-05-14T05:50:05.632Z,37.20
2018-05-14T05:51:11.632Z,37.00
2018-05-14T05:52:08.901Z,36.60
2018-05-14T05:53:09.789Z,36.90
2018-05-14T05:54:06.650Z,36.90
2018-05-14T05:55:09.143Z,37.10
2018-05-14T05:56:05.858Z,37.00
2018-05-14T05:57:10.873Z,37.00
2018-05-14T05:58:05.770Z,37.10
2018-05-14T05:59:05.470Z,36.80
2018-05-14T06:00:06.335Z,36.40
2018-05-14T06:01:06.019Z,36.60
2018-05-14T06:02:06.251Z,36.40
2018-05-14T06:03:11.375Z,36.40
2018-05-14T06:04:09.528Z,36.30
2018-05-14T06:05:06.121Z,36.20
2018-05-14T06:06:10.507Z,35.60
2018-05-14T06:07:06.614Z,35.60
2018-05-14T06:08:06.427Z,35.70
2018-05-14T06:09:06.543Z,35.50
2018-05-14T06:10:06.190Z,35.10
2018-05-14T06:11:09.240Z,35.20
2018-05-14T06:12:08.246Z,35.40
2018-05-14T06:13:06.008Z,35.30
2018-05-14T06:14:09.385Z,34.60
2018-05-14T06:15:11.437Z,34.20
2018-05-14T06:16:08.751Z,34.00
2018-05-14T06:17:06.591Z,34.10
2018-05-14T06:18:05.676Z,34.50
2018-05-14T06:19:05.810Z,34.40
2018-05-14T06:20:08.136Z,35.10
2018-05-14T06:21:08.603Z,35.20
2018-05-14T06:22:06.151Z,35.20
2018-05-14T06:23:07.009Z,34.90
2018-05-14T06:24:09.405Z,34.40
2018-05-14T06:25:10.892Z,34.40
2018-05-14T06:26:05.720Z,35.10
2018-05-14T06:27:06.991Z,35.00
2018-05-14T06:28:10.752Z,34.70
2018-05-14T06:29:05.941Z,34.70
2018-05-14T06:30:06.007Z,34.50
2018-05-14T06:31:06.570Z,34.60
2018-05-14T06:32:11.463Z,35.10
2018-05-14T06:33:06.119Z,35.10
2018-05-14T06:34:06.554Z,35.20
2018-05-14T06:35:08.831Z,35.60
2018-05-14T06:36:06.748Z,35.60
2018-05-14T06:37:06.783Z,35.90
2018-05-14T06:38:05.963Z,35.50
2018-05-14T06:39:05.936Z,35.20
2018-05-14T06:40:06.641Z,35.50
2018-05-14T06:41:07.628Z,35.40
2018-05-14T06:42:08.971Z,35.10
2018-05-14T06:43:05.802Z,35.10
2018-05-14T06:44:06.616Z,34.80
2018-05-14T06:45:09.538Z,34.80
2018-05-14T06:46:06.412Z,34.80
2018-05-14T06:47:08.330Z,34.80
2018-05-14T06:48:06.028Z,34.80
2018-05-14T06:49:06.195Z,34.80
2018-05-14T06:50:08.777Z,34.70
2018-05-14T06:51:06.618Z,34.70
2018-05-14T06:52:10.913Z,34.50
2018-05-14T06:53:06.104Z,34.60
2018-05-14T06:54:08.610Z,34.20
2018-05-14T06:55:06.314Z,34.20
2018-05-14T06:56:10.794Z,34.60
2018-05-14T06:57:05.730Z,34.50
2018-05-14T06:58:05.923Z,34.40
2018-05-14T06:59:10.984Z,34.60
2018-05-14T07:00:10.703Z,34.80
2018-05-14T07:01:06.304Z,34.80
2018-05-14T07:02:06.426Z,34.70
2018-05-14T07:03:08.670Z,34.60
2018-05-14T07:04:11.349Z,34.20
2018-05-14T07:05:10.771Z,34.20
2018-05-14T07:06:08.946Z,34.10
2018-05-14T07:07:09.300Z,34.50
2018-05-14T07:08:05.997Z,34.50
2018-05-14T07:09:11.709Z,34.30
2018-05-14T07:10:06.483Z,34.30
2018-05-14T07:11:06.315Z,33.80
2018-05-14T07:12:06.393Z,34.00
2018-05-14T07:13:09.247Z,34.50
2018-05-14T07:14:05.730Z,34.50
2018-05-14T07:15:06.687Z,9.20
2018-05-14T07:16:06.577Z,34.80
2018-05-14T07:17:09.372Z,34.80
2018-05-14T07:18:06.029Z,34.80
2018-05-14T07:19:11.064Z,34.70
2018-05-14T07:20:08.218Z,34.70
2018-05-14T07:21:06.221Z,34.70
2018-05-14T07:22:06.237Z,34.30
2018-05-14T07:23:06.228Z,34.70
2018-05-14T07:24:06.539Z,34.50
2018-05-14T07:25:10.716Z,34.30
2018-05-14T07:26:10.840Z,34.20
2018-05-14T07:27:06.303Z,34.20
2018-05-14T07:28:08.519Z,34.50
2018-05-14T07:29:06.431Z,34.50
2018-05-14T07:30:06.201Z,34.90
2018-05-14T07:31:05.890Z,34.50
2018-05-14T07:32:11.004Z,34.10
2018-05-14T07:33:11.087Z,34.20
2018-05-14T07:34:06.595Z,34.30
2018-05-14T07:35:06.121Z,34.20
2018-05-14T07:36:10.952Z,34.40
2018-05-14T07:37:06.349Z,34.00
2018-05-14T07:38:08.378Z,33.90
2018-05-14T07:39:19.371Z,33.50
2018-05-14T07:40:10.930Z,33.80
2018-05-14T07:41:11.576Z,33.90
2018-05-14T07:42:06.122Z,34.20
2018-05-14T07:43:08.842Z,34.00
2018-05-14T07:44:06.960Z,34.10
2018-05-14T07:45:09.106Z,33.50
2018-05-14T07:46:05.823Z,33.50
2018-05-14T07:47:09.070Z,33.70
2018-05-14T07:48:08.130Z,33.50
2018-05-14T07:49:06.133Z,33.50
2018-05-14T07:50:08.268Z,34.10
2018-05-14T07:51:10.850Z,34.40
2018-05-14T07:52:06.757Z,34.30
2018-05-14T07:53:06.677Z,34.70
2018-05-14T07:54:09.043Z,33.90
2018-05-14T07:55:06.248Z,33.90
2018-05-14T07:56:10.279Z,34.00
2018-05-14T07:57:06.456Z,34.00
2018-05-14T07:58:06.679Z,34.40
2018-05-14T07:59:09.110Z,33.90
2018-05-14T08:00:06.284Z,34.00
2018-05-14T08:01:06.136Z,33.80
2018-05-14T08:02:05.990Z,33.50
2018-05-14T08:03:08.894Z,33.80
2018-05-14T08:04:06.344Z,33.90
2018-05-14T08:05:06.666Z,33.80
2018-05-14T08:06:09.269Z,33.50
2018-05-14T08:07:05.974Z,33.50
2018-05-14T08:08:05.781Z,34.10
2018-05-14T08:09:10.596Z,34.60
2018-05-14T08:10:08.687Z,34.40
2018-05-14T08:11:08.783Z,34.40
2018-05-14T08:12:06.006Z,34.40
2018-05-14T08:13:05.970Z,34.20
2018-05-14T08:14:10.139Z,34.20
2018-05-14T08:15:10.483Z,33.90
2018-05-14T08:16:05.651Z,33.90
2018-05-14T08:17:05.734Z,34.20
2018-05-14T08:18:05.746Z,34.10
2018-05-14T08:19:10.615Z,34.30
2018-05-14T08:20:05.993Z,34.20
2018-05-14T08:21:11.340Z,34.20
2018-05-14T08:22:06.019Z,34.20
2018-05-14T08:23:08.377Z,34.10
2018-05-14T08:24:08.746Z,34.00
2018-05-14T08:25:06.716Z,34.00
2018-05-14T08:26:09.303Z,33.60
2018-05-14T08:27:05.594Z,33.60
2018-05-14T08:28:06.235Z,33.40
2018-05-14T08:29:08.370Z,33.50
2018-05-14T08:30:05.878Z,33.50
2018-05-14T08:31:05.721Z,33.70
2018-05-14T08:32:10.932Z,34.00
2018-05-14T08:33:06.192Z,34.00
2018-05-14T08:34:06.270Z,34.00
2018-05-14T08:35:09.237Z,33.50
2018-05-14T08:36:10.658Z,33.50
2018-05-14T08:37:06.451Z,33.50
2018-05-14T08:38:05.835Z,33.80
2018-05-14T08:39:05.572Z,34.10
2018-05-14T08:40:10.869Z,33.70
2018-05-14T08:41:06.660Z,33.40
2018-05-14T08:42:08.633Z,33.40
2018-05-14T08:43:06.401Z,33.40
2018-05-14T08:44:08.316Z,33.60
2018-05-14T08:45:05.702Z,33.60
2018-05-14T08:46:06.765Z,33.60
2018-05-14T08:47:07.003Z,33.50
2018-05-14T08:48:05.932Z,33.40
2018-05-14T08:49:05.649Z,32.60
2018-05-14T08:50:06.242Z,32.90
2018-05-14T08:51:05.552Z,32.20
2018-05-14T08:52:06.291Z,32.00
2018-05-14T08:53:05.815Z,32.30
2018-05-14T08:54:09.070Z,32.90
2018-05-14T08:55:05.979Z,32.90
2018-05-14T08:56:05.760Z,33.10
2018-05-14T08:57:06.150Z,32.70
2018-05-14T08:58:05.692Z,32.40
2018-05-14T08:59:11.094Z,32.50
2018-05-14T09:00:10.473Z,32.30
2018-05-14T09:01:05.515Z,32.20
2018-05-14T09:02:09.223Z,32.40
2018-05-14T09:03:05.850Z,32.50
2018-05-14T09:04:05.732Z,32.50
2018-05-14T09:05:09.951Z,32.50
2018-05-14T09:06:05.829Z,32.50
2018-05-14T09:07:11.107Z,33.00
2018-05-14T09:08:08.021Z,32.60
2018-05-14T09:09:06.262Z,32.60
2018-05-14T09:10:11.018Z,32.70
2018-05-14T09:11:05.714Z,32.70
2018-05-14T09:12:06.745Z,32.50
2018-05-14T09:13:05.582Z,32.70
2018-05-14T09:14:07.393Z,32.50
2018-05-14T09:15:05.989Z,32.50
2018-05-14T09:16:10.729Z,32.30
2018-05-14T09:17:06.438Z,32.30
2018-05-14T09:18:09.035Z,32.40
2018-05-14T09:19:08.062Z,32.60
2018-05-14T09:20:05.422Z,32.60
2018-05-14T09:21:09.218Z,32.20
2018-05-14T09:22:05.703Z,32.20
2018-05-14T09:23:08.931Z,32.30
2018-05-14T09:24:06.615Z,32.30
2018-05-14T09:25:08.845Z,32.60
2018-05-14T09:26:08.809Z,31.50
2018-05-14T09:27:06.453Z,31.50
2018-05-14T09:28:06.273Z,31.50
2018-05-14T09:29:09.085Z,31.20
2018-05-14T09:30:08.773Z,31.60
2018-05-14T09:31:11.320Z,31.60
2018-05-14T09:32:05.818Z,31.60
2018-05-14T09:33:05.851Z,31.50
2018-05-14T09:34:07.408Z,31.60
2018-05-14T09:35:05.823Z,31.30
2018-05-14T09:36:05.666Z,31.20
2018-05-14T09:37:05.576Z,31.70
2018-05-14T09:38:06.160Z,31.50
2018-05-14T09:39:06.815Z,31.50
2018-05-14T09:40:05.901Z,31.90
2018-05-14T09:41:10.443Z,31.90
2018-05-14T09:42:05.842Z,32.30
2018-05-14T09:43:11.344Z,31.70
2018-05-14T09:44:05.971Z,31.60
2018-05-14T09:45:06.310Z,31.90
2018-05-14T09:46:05.877Z,31.70
2018-05-14T09:47:06.311Z,31.80
2018-05-14T09:48:13.937Z,31.60
2018-05-14T09:49:06.503Z,31.60
2018-05-14T09:50:09.244Z,31.20
2018-05-14T09:51:05.940Z,31.20
2018-05-14T09:52:10.645Z,30.90
2018-05-14T09:53:06.118Z,31.10
2018-05-14T09:54:06.720Z,31.30
2018-05-14T09:55:09.583Z,30.10
2018-05-14T09:56:06.326Z,30.20
2018-05-14T09:57:06.054Z,30.20
2018-05-14T09:58:05.620Z,29.90
2018-05-14T09:59:06.160Z,30.00
2018-05-14T10:00:05.692Z,29.70
2018-05-14T10:01:10.567Z,29.80
2018-05-14T10:02:05.741Z,29.80
2018-05-14T10:03:06.682Z,29.80
2018-05-14T10:04:11.162Z,29.80
2018-05-14T10:05:05.613Z,29.80
2018-05-14T10:06:06.463Z,29.70
2018-05-14T10:07:09.405Z,30.30
2018-05-14T10:08:06.221Z,30.40
2018-05-14T10:09:06.375Z,30.00
2018-05-14T10:10:08.578Z,29.60
2018-05-14T10:11:09.464Z,29.40
2018-05-14T10:12:10.866Z,29.40
2018-05-14T10:13:05.592Z,30.30
2018-05-14T10:14:06.295Z,29.90
2018-05-14T10:15:08.855Z,29.60
2018-05-14T10:16:11.260Z,29.60
2018-05-14T10:17:10.666Z,29.40
2018-05-14T10:18:09.096Z,29.50
2018-05-14T10:19:05.825Z,29.50
2018-05-14T10:20:06.795Z,29.10
2018-05-14T10:21:08.810Z,29.80
2018-05-14T10:22:06.404Z,29.70
2018-05-14T10:23:06.307Z,30.00
2018-05-14T10:24:06.163Z,29.70
2018-05-14T10:25:06.069Z,30.00
2018-05-14T10:26:08.932Z,29.80
2018-05-14T10:27:10.774Z,29.70
2018-05-14T10:28:06.236Z,29.80
2018-05-14T10:29:11.409Z,29.10
2018-05-14T10:30:10.894Z,29.10
2018-05-14T10:31:05.993Z,29.10
2018-05-14T10:32:05.836Z,29.30
2018-05-14T10:33:09.610Z,29.10
2018-05-14T10:34:06.353Z,29.10
2018-05-14T10:35:08.006Z,29.50
2018-05-14T10:36:10.431Z,29.40
2018-05-14T10:37:10.539Z,29.40
2018-05-14T10:38:08.577Z,29.00
2018-05-14T10:39:08.502Z,28.90
2018-05-14T10:40:10.850Z,28.90
2018-05-14T10:41:05.853Z,29.10
2018-05-14T10:42:05.962Z,28.80
2018-05-14T10:43:08.561Z,28.70
2018-05-14T10:44:11.095Z,29.10
2018-05-14T10:45:05.649Z,29.10
2018-05-14T10:46:05.607Z,29.10
2018-05-14T10:47:05.935Z,28.70
2018-05-14T10:48:06.406Z,29.10
2018-05-14T10:49:09.702Z,28.60
2018-05-14T10:50:10.492Z,28.70
2018-05-14T10:51:08.228Z,29.40
2018-05-14T10:52:05.852Z,29.30
2018-05-14T10:53:11.313Z,29.00
2018-05-14T10:54:05.732Z,28.90
2018-05-14T10:55:06.241Z,28.30
2018-05-14T10:56:05.815Z,28.20
2018-05-14T10:57:07.467Z,27.90
2018-05-14T10:58:05.865Z,27.90
2018-05-14T10:59:05.918Z,28.10
2018-05-14T11:00:05.943Z,28.10
2018-05-14T11:01:05.501Z,27.90
2018-05-14T11:02:05.983Z,27.50
2018-05-14T11:03:11.304Z,27.40
2018-05-14T11:04:06.154Z,27.40
2018-05-14T11:05:06.695Z,27.60
2018-05-14T11:06:10.422Z,27.80
2018-05-14T11:07:05.929Z,27.80
2018-05-14T11:08:08.135Z,28.10
2018-05-14T11:09:08.119Z,28.30
2018-05-14T11:10:09.196Z,29.00
2018-05-14T11:11:08.191Z,28.30
2018-05-14T11:12:05.667Z,28.20
2018-05-14T11:13:06.675Z,27.50
2018-05-14T11:14:05.700Z,27.20
2018-05-14T11:15:08.523Z,27.60
2018-05-14T11:16:09.404Z,26.70
2018-05-14T11:17:10.870Z,26.70
2018-05-14T11:18:06.300Z,26.90
2018-05-14T11:19:05.823Z,27.20
2018-05-14T11:20:09.669Z,27.80
2018-05-14T11:21:11.234Z,27.50
2018-05-14T11:22:10.998Z,28.00
2018-05-14T11:23:06.241Z,28.00
2018-05-14T11:24:08.133Z,28.00
2018-05-14T11:25:05.837Z,28.00
2018-05-14T11:26:05.612Z,27.80
2018-05-14T11:27:11.020Z,27.90
2018-05-14T11:28:06.046Z,27.90
2018-05-14T11:29:06.209Z,27.90
2018-05-14T11:30:08.353Z,28.50
2018-05-14T11:31:05.547Z,28.60
2018-05-14T11:32:06.255Z,28.60
2018-05-14T11:33:06.498Z,28.60
2018-05-14T11:34:06.012Z,27.80
2018-05-14T11:35:08.692Z,27.50
2018-05-14T11:36:06.185Z,27.50
2018-05-14T11:37:05.865Z,27.70
2018-05-14T11:38:08.914Z,27.80
2018-05-14T11:39:06.344Z,27.80
2018-05-14T11:40:08.587Z,28.30
2018-05-14T11:41:05.841Z,28.30
2018-05-14T11:42:05.922Z,28.30
2018-05-14T11:43:05.680Z,28.50
2018-05-14T11:44:05.662Z,28.80
2018-05-14T11:45:11.248Z,29.00
2018-05-14T11:46:09.626Z,29.10
2018-05-14T11:47:06.152Z,29.10
2018-05-14T11:48:08.315Z,29.70
2018-05-14T11:49:06.247Z,29.70
2018-05-14T11:50:06.232Z,29.10
2018-05-14T11:51:05.812Z,29.30
2018-05-14T11:52:09.262Z,29.50
2018-05-14T11:53:05.929Z,29.60
2018-05-14T11:54:06.040Z,29.20
2018-05-14T11:55:08.714Z,29.30
2018-05-14T11:56:06.275Z,29.30
2018-05-14T11:57:05.744Z,29.20
2018-05-14T11:58:06.588Z,29.50
2018-05-14T11:59:06.305Z,30.00
2018-05-14T12:00:11.102Z,30.10
2018-05-14T12:01:05.776Z,30.10
2018-05-14T12:02:05.975Z,30.20
2018-05-14T12:03:05.948Z,30.40
2018-05-14T12:04:05.776Z,29.80
2018-05-14T12:05:05.930Z,29.90
2018-05-14T12:06:05.358Z,30.20
2018-05-14T12:07:09.328Z,30.40
2018-05-14T12:08:05.775Z,30.50
2018-05-14T12:09:08.836Z,30.20
2018-05-14T12:10:10.492Z,30.70
2018-05-14T12:11:08.709Z,30.90
2018-05-14T12:12:11.160Z,30.10
2018-05-14T12:13:08.528Z,30.40
2018-05-14T12:14:05.781Z,30.40
2018-05-14T12:15:05.510Z,29.90
2018-05-14T12:16:11.492Z,30.10
2018-05-14T12:17:08.791Z,29.50
2018-05-14T12:18:05.789Z,29.50
2018-05-14T12:19:06.590Z,29.40
2018-05-14T12:20:06.693Z,29.00
2018-05-14T12:21:09.304Z,29.10
2018-05-14T12:22:06.035Z,29.10
2018-05-14T12:23:06.170Z,28.80
2018-05-14T12:24:06.495Z,28.30
2018-05-14T12:25:05.985Z,28.60
2018-05-14T12:26:06.725Z,28.70
2018-05-14T12:27:10.727Z,29.10
2018-05-14T12:28:07.237Z,29.20
2018-05-14T12:29:05.714Z,28.90
2018-05-14T12:30:08.882Z,28.40
2018-05-14T12:31:08.111Z,28.40
2018-05-14T12:32:08.286Z,28.40
2018-05-14T12:33:05.910Z,28.50
2018-05-14T12:34:08.926Z,28.60
2018-05-14T12:35:11.373Z,28.60
2018-05-14T12:36:05.412Z,28.00
2018-05-14T12:37:06.353Z,27.60
2018-05-14T12:38:10.277Z,27.90
2018-05-14T12:39:10.417Z,27.90
2018-05-14T12:40:05.676Z,27.90
2018-05-14T12:41:09.398Z,27.80
2018-05-14T12:42:10.841Z,27.30
2018-05-14T12:43:06.235Z,27.20
2018-05-14T12:44:06.369Z,27.20
2018-05-14T12:45:05.441Z,27.00
2018-05-14T12:46:05.797Z,27.20
2018-05-14T12:47:06.633Z,27.60
2018-05-14T12:48:06.268Z,27.40
2018-05-14T12:49:10.764Z,26.30
2018-05-14T12:50:06.210Z,26.30
2018-05-14T12:51:05.933Z,26.10
2018-05-14T12:52:05.362Z,26.40